sensor_id;sensor_type;location;lat;lon;timestamp;pressure;altitude;pressure_sealevel;temperature;humidity
59757;BME280;45631;51.962;5.974;2023-10-13T00:01:24;100985.88;;;16.15;100.00
59757;BME280;45631;51.962;5.974;2023-10-13T00:03:53;100983.00;;;16.18;100.00
59757;BME280;45631;51.962;5.974;2023-10-13T00:06:21;100983.00;;;16.18;100.00
59757;BME280;45631;51.962;5.974;2023-10-13T00:08:49;100983.81;;;16.19;100.00
59757;BME280;45631;51.962;5.974;2023-10-13T00:11:17;100980.44;;;16.17;100.00
59757;BME280;45631;51.962;5.974;2023-10-13T00:13:49;100970.13;;;16.14;100.00
59757;BME280;45631;51.962;5.974;2023-10-13T00:16:18;100977.78;;;16.17;100.00
59757;BME280;45631;51.962;5.974;2023-10-13T00:18:49;100978.06;;;16.14;100.00
59757;BME280;45631;51.962;5.974;2023-10-13T00:21:21;100969.97;;;16.15;100.00
59757;BME280;45631;51.962;5.974;2023-10-13T00:23:59;100976.84;;;16.18;100.00
59757;BME280;45631;51.962;5.974;2023-10-13T00:26:32;100984.09;;;16.16;100.00
59757;BME280;45631;51.962;5.974;2023-10-13T00:29:04;100967.19;;;16.17;100.00
59757;BME280;45631;51.962;5.974;2023-10-13T00:31:45;100966.78;;;16.12;100.00
59757;BME280;45631;51.962;5.974;2023-10-13T00:34:15;100959.50;;;16.14;100.00
59757;BME280;45631;51.962;5.974;2023-10-13T00:36:47;100954.78;;;16.17;100.00
59757;BME280;45631;51.962;5.974;2023-10-13T00:39:37;100959.22;;;16.17;100.00
59757;BME280;45631;51.962;5.974;2023-10-13T00:42:12;100955.75;;;16.16;100.00
59757;BME280;45631;51.962;5.974;2023-10-13T00:44:48;100958.66;;;16.13;100.00
59757;BME280;45631;51.962;5.974;2023-10-13T00:47:17;100952.50;;;16.13;100.00
59757;BME280;45631;51.962;5.974;2023-10-13T00:50:04;100957.81;;;16.13;100.00
59757;BME280;45631;51.962;5.974;2023-10-13T00:52:37;100954.06;;;16.15;100.00
59757;BME280;45631;51.962;5.974;2023-10-13T00:55:09;100945.00;;;16.18;100.00
59757;BME280;45631;51.962;5.974;2023-10-13T00:57:38;100943.75;;;16.22;100.00
59757;BME280;45631;51.962;5.974;2023-10-13T01:00:09;100949.34;;;16.19;100.00
59757;BME280;45631;51.962;5.974;2023-10-13T01:02:46;100942.06;;;16.21;100.00
59757;BME280;45631;51.962;5.974;2023-10-13T01:05:23;100935.78;;;16.22;100.00
59757;BME280;45631;51.962;5.974;2023-10-13T01:07:51;100925.19;;;16.22;100.00
59757;BME280;45631;51.962;5.974;2023-10-13T01:10:23;100931.34;;;16.22;100.00
59757;BME280;45631;51.962;5.974;2023-10-13T01:12:57;100924.50;;;16.20;100.00
59757;BME280;45631;51.962;5.974;2023-10-13T01:15:27;100927.16;;;16.20;100.00
59757;BME280;45631;51.962;5.974;2023-10-13T01:18:09;100918.59;;;16.16;100.00
59757;BME280;45631;51.962;5.974;2023-10-13T01:20:38;100922.66;;;16.20;100.00
59757;BME280;45631;51.962;5.974;2023-10-13T01:23:13;100918.31;;;16.19;100.00
59757;BME280;45631;51.962;5.974;2023-10-13T01:25:46;100913.16;;;16.18;100.00
59757;BME280;45631;51.962;5.974;2023-10-13T01:28:15;100918.47;;;16.18;100.00
59757;BME280;45631;51.962;5.974;2023-10-13T01:30:43;100907.84;;;16.18;100.00
59757;BME280;45631;51.962;5.974;2023-10-13T01:33:17;100908.44;;;16.21;100.00
59757;BME280;45631;51.962;5.974;2023-10-13T01:35:53;100899.63;;;16.21;100.00
59757;BME280;45631;51.962;5.974;2023-10-13T01:38:23;100905.19;;;16.18;100.00
59757;BME280;45631;51.962;5.974;2023-10-13T01:40:55;100893.63;;;16.19;100.00
59757;BME280;45631;51.962;5.974;2023-10-13T01:43:25;100896.41;;;16.17;100.00
59757;BME280;45631;51.962;5.974;2023-10-13T01:45:52;100892.06;;;16.16;100.00
59757;BME280;45631;51.962;5.974;2023-10-13T01:48:24;100882.56;;;16.14;100.00
59757;BME280;45631;51.962;5.974;2023-10-13T01:50:56;100879.38;;;16.20;100.00
59757;BME280;45631;51.962;5.974;2023-10-13T01:53:31;100875.19;;;16.17;100.00
59757;BME280;45631;51.962;5.974;2023-10-13T01:55:58;100874.06;;;16.20;100.00
59757;BME280;45631;51.962;5.974;2023-10-13T01:58:26;100869.88;;;16.17;100.00
59757;BME280;45631;51.962;5.974;2023-10-13T02:00:55;100865.97;;;16.21;100.00
59757;BME280;45631;51.962;5.974;2023-10-13T02:03:23;100858.16;;;16.20;100.00
59757;BME280;45631;51.962;5.974;2023-10-13T02:05:54;100850.88;;;16.22;100.00
59757;BME280;45631;51.962;5.974;2023-10-13T02:08:24;100856.47;;;16.19;100.00
59757;BME280;45631;51.962;5.974;2023-10-13T02:10:55;100850.59;;;16.15;100.00
59757;BME280;45631;51.962;5.974;2023-10-13T02:13:24;100855.75;;;16.17;100.00
59757;BME280;45631;51.962;5.974;2023-10-13T02:15:56;100847.09;;;16.15;100.00
59757;BME280;45631;51.962;5.974;2023-10-13T02:18:25;100845.16;;;16.17;100.00
59757;BME280;45631;51.962;5.974;2023-10-13T02:21:03;100845.44;;;16.14;100.00
59757;BME280;45631;51.962;5.974;2023-10-13T02:23:31;100837.47;;;16.14;100.00
59757;BME280;45631;51.962;5.974;2023-10-13T02:26:01;100840.25;;;16.12;100.00
59757;BME280;45631;51.962;5.974;2023-10-13T02:28:29;100833.28;;;16.11;100.00
59757;BME280;45631;51.962;5.974;2023-10-13T02:31:02;100831.47;;;16.12;100.00
59757;BME280;45631;51.962;5.974;2023-10-13T02:33:30;100829.66;;;16.12;100.00
59757;BME280;45631;51.962;5.974;2023-10-13T02:35:59;100825.72;;;16.07;100.00
59757;BME280;45631;51.962;5.974;2023-10-13T02:38:30;100806.19;;;16.08;100.00
59757;BME280;45631;51.962;5.974;2023-10-13T02:41:03;100806.19;;;16.08;100.00
59757;BME280;45631;51.962;5.974;2023-10-13T02:43:33;100801.44;;;16.11;100.00
59757;BME280;45631;51.962;5.974;2023-10-13T02:46:01;100802.28;;;16.12;100.00
59757;BME280;45631;51.962;5.974;2023-10-13T02:48:30;100792.66;;;16.11;100.00
59757;BME280;45631;51.962;5.974;2023-10-13T02:51:07;100790.00;;;16.11;100.00
59757;BME280;45631;51.962;5.974;2023-10-13T02:53:43;100787.34;;;16.11;100.00
59757;BME280;45631;51.962;5.974;2023-10-13T02:56:18;100787.50;;;16.09;100.00
59757;BME280;45631;51.962;5.974;2023-10-13T02:58:48;100783.00;;;16.10;100.00
59757;BME280;45631;51.962;5.974;2023-10-13T03:01:23;100776.16;;;16.07;100.00
59757;BME280;45631;51.962;5.974;2023-10-13T03:03:55;100780.34;;;16.10;100.00
59757;BME280;45631;51.962;5.974;2023-10-13T03:06:26;100778.94;;;16.05;100.00
59757;BME280;45631;51.962;5.974;2023-10-13T03:09:02;100771.97;;;16.04;100.00
59757;BME280;45631;51.962;5.974;2023-10-13T03:11:42;100771.72;;;16.08;100.00
59757;BME280;45631;51.962;5.974;2023-10-13T03:14:15;100762.22;;;16.05;100.00
59757;BME280;45631;51.962;5.974;2023-10-13T03:16:53;100754.41;;;16.03;100.00
59757;BME280;45631;51.962;5.974;2023-10-13T03:19:21;100753.69;;;16.01;100.00
59757;BME280;45631;51.962;5.974;2023-10-13T03:21:49;100744.47;;;16.05;100.00
59757;BME280;45631;51.962;5.974;2023-10-13T03:24:22;100738.88;;;16.09;100.00
59757;BME280;45631;51.962;5.974;2023-10-13T03:27:02;100733.28;;;16.02;100.00
59757;BME280;45631;51.962;5.974;2023-10-13T03:29:36;100727.16;;;16.01;100.00
59757;BME280;45631;51.962;5.974;2023-10-13T03:32:04;100727.72;;;16.05;100.00
59757;BME280;45631;51.962;5.974;2023-10-13T03:34:39;100714.72;;;16.02;100.00
59757;BME280;45631;51.962;5.974;2023-10-13T03:37:21;100708.88;;;15.98;100.00
59757;BME280;45631;51.962;5.974;2023-10-13T03:40:06;100712.50;;;15.97;100.00
59757;BME280;45631;51.962;5.974;2023-10-13T03:42:57;100707.34;;;15.96;100.00
59757;BME280;45631;51.962;5.974;2023-10-13T03:45:32;100706.22;;;15.98;100.00
59757;BME280;45631;51.962;5.974;2023-10-13T03:48:05;100702.31;;;16.02;100.00
59757;BME280;45631;51.962;5.974;2023-10-13T03:50:37;100686.41;;;16.02;100.00
59757;BME280;45631;51.962;5.974;2023-10-13T03:53:13;100681.38;;;15.99;100.00
59757;BME280;45631;51.962;5.974;2023-10-13T03:55:41;100691.84;;;16.01;100.00
59757;BME280;45631;51.962;5.974;2023-10-13T03:58:16;100654.88;;;15.99;100.00
59757;BME280;45631;51.962;5.974;2023-10-13T04:00:44;100664.47;;;16.00;100.00
59757;BME280;45631;51.962;5.974;2023-10-13T04:03:13;100649.41;;;16.01;100.00
59757;BME280;45631;51.962;5.974;2023-10-13T04:05:45;100671.31;;;16.03;100.00
59757;BME280;45631;51.962;5.974;2023-10-13T04:08:28;100654.56;;;16.02;100.00
59757;BME280;45631;51.962;5.974;2023-10-13T04:11:35;100644.94;;;16.01;100.00
59757;BME280;45631;51.962;5.974;2023-10-13T04:14:39;100640.34;;;16.03;100.00
59757;BME280;45631;51.962;5.974;2023-10-13T04:17:25;100635.72;;;16.05;100.00
59757;BME280;45631;51.962;5.974;2023-10-13T04:19:57;100626.38;;;16.01;100.00
59757;BME280;45631;51.962;5.974;2023-10-13T04:22:39;100626.50;;;16.00;100.00
59757;BME280;45631;51.962;5.974;2023-10-13T04:25:23;100613.13;;;16.01;100.00
59757;BME280;45631;51.962;5.974;2023-10-13T04:28:06;100601.69;;;16.01;100.00
59757;BME280;45631;51.962;5.974;2023-10-13T04:30:46;100598.31;;;15.99;100.00
59757;BME280;45631;51.962;5.974;2023-10-13T04:33:27;100596.22;;;16.02;100.00
59757;BME280;45631;51.962;5.974;2023-10-13T04:36:11;100588.94;;;16.04;100.00
59757;BME280;45631;51.962;5.974;2023-10-13T04:38:44;100580.31;;;16.02;100.00
59757;BME280;45631;51.962;5.974;2023-10-13T04:41:24;100574.16;;;16.02;100.00
59757;BME280;45631;51.962;5.974;2023-10-13T04:43:58;100576.94;;;16.00;100.00
59757;BME280;45631;51.962;5.974;2023-10-13T04:46:33;100558.38;;;16.00;100.00
59757;BME280;45631;51.962;5.974;2023-10-13T04:49:07;100549.59;;;16.00;100.00
59757;BME280;45631;51.962;5.974;2023-10-13T04:51:54;100540.69;;;16.01;100.00
59757;BME280;45631;51.962;5.974;2023-10-13T04:54:41;100526.69;;;16.09;100.00
59757;BME280;45631;51.962;5.974;2023-10-13T04:57:12;100522.09;;;16.11;100.00
59757;BME280;45631;51.962;5.974;2023-10-13T04:59:59;100526.00;;;16.07;100.00
59757;BME280;45631;51.962;5.974;2023-10-13T05:02:54;100512.75;;;16.07;100.00
59757;BME280;45631;51.962;5.974;2023-10-13T05:05:44;100506.84;;;16.13;100.00
59757;BME280;45631;51.962;5.974;2023-10-13T05:08:28;100505.44;;;16.18;100.00
59757;BME280;45631;51.962;5.974;2023-10-13T05:11:14;100512.41;;;16.19;100.00
59757;BME280;45631;51.962;5.974;2023-10-13T05:13:59;100510.75;;;16.18;100.00
59757;BME280;45631;51.962;5.974;2023-10-13T05:16:44;100508.47;;;16.23;100.00
59757;BME280;45631;51.962;5.974;2023-10-13T05:19:31;100499.66;;;16.33;100.00
59757;BME280;45631;51.962;5.974;2023-10-13T05:22:17;100515.16;;;16.37;100.00
59757;BME280;45631;51.962;5.974;2023-10-13T05:25:02;100504.25;;;16.41;100.00
59757;BME280;45631;51.962;5.974;2023-10-13T05:27:48;100503.28;;;16.42;100.00
59757;BME280;45631;51.962;5.974;2023-10-13T05:30:42;100514.00;;;16.50;100.00
59757;BME280;45631;51.962;5.974;2023-10-13T05:33:27;100508.69;;;16.50;100.00
59757;BME280;45631;51.962;5.974;2023-10-13T05:36:14;100500.41;;;16.53;100.00
59757;BME280;45631;51.962;5.974;2023-10-13T05:38:59;100496.19;;;16.60;100.00
59757;BME280;45631;51.962;5.974;2023-10-13T05:41:45;100498.53;;;16.63;100.00
59757;BME280;45631;51.962;5.974;2023-10-13T05:44:31;100500.22;;;16.64;100.00
59757;BME280;45631;51.962;5.974;2023-10-13T05:47:07;100506.22;;;16.66;100.00
59757;BME280;45631;51.962;5.974;2023-10-13T05:50:01;100491.81;;;16.69;100.00
59757;BME280;45631;51.962;5.974;2023-10-13T05:52:43;100489.69;;;16.72;100.00
59757;BME280;45631;51.962;5.974;2023-10-13T05:55:31;100484.69;;;16.69;100.00
59757;BME280;45631;51.962;5.974;2023-10-13T05:58:17;100487.19;;;16.71;100.00
59757;BME280;45631;51.962;5.974;2023-10-13T06:01:02;100476.72;;;16.69;100.00
59757;BME280;45631;51.962;5.974;2023-10-13T06:03:47;100484.53;;;16.71;100.00
59757;BME280;45631;51.962;5.974;2023-10-13T06:06:33;100481.56;;;16.74;100.00
59757;BME280;45631;51.962;5.974;2023-10-13T06:09:23;100482.72;;;16.71;100.00
59757;BME280;45631;51.962;5.974;2023-10-13T06:12:08;100482.72;;;16.71;100.00
59757;BME280;45631;51.962;5.974;2023-10-13T06:14:54;100492.34;;;16.72;100.00
59757;BME280;45631;51.962;5.974;2023-10-13T06:17:39;100473.47;;;16.76;100.00
59757;BME280;45631;51.962;5.974;2023-10-13T06:20:27;100476.97;;;16.76;100.00
59757;BME280;45631;51.962;5.974;2023-10-13T06:23:13;100477.94;;;16.75;100.00
59757;BME280;45631;51.962;5.974;2023-10-13T06:26:02;100490.91;;;16.78;100.00
59757;BME280;45631;51.962;5.974;2023-10-13T06:28:48;100483.09;;;16.77;100.00
59757;BME280;45631;51.962;5.974;2023-10-13T06:31:16;100480.28;;;16.78;100.00
59757;BME280;45631;51.962;5.974;2023-10-13T06:33:50;100475.69;;;16.80;100.00
59757;BME280;45631;51.962;5.974;2023-10-13T06:36:18;100477.03;;;16.84;100.00
59757;BME280;45631;51.962;5.974;2023-10-13T06:38:46;100474.38;;;16.84;100.00
59757;BME280;45631;51.962;5.974;2023-10-13T06:41:23;100464.91;;;16.82;100.00
59757;BME280;45631;51.962;5.974;2023-10-13T06:43:58;100466.97;;;16.88;100.00
59757;BME280;45631;51.962;5.974;2023-10-13T06:46:32;100468.94;;;16.86;100.00
59757;BME280;45631;51.962;5.974;2023-10-13T06:49:02;100463.19;;;16.90;100.00
59757;BME280;45631;51.962;5.974;2023-10-13T06:51:30;100466.38;;;16.94;100.00
59757;BME280;45631;51.962;5.974;2023-10-13T06:54:05;100461.06;;;16.94;100.00
59757;BME280;45631;51.962;5.974;2023-10-13T06:56:47;100463.72;;;16.94;100.00
59757;BME280;45631;51.962;5.974;2023-10-13T06:59:19;100459.13;;;16.96;100.00
59757;BME280;45631;51.962;5.974;2023-10-13T07:01:53;100460.91;;;16.96;100.00
59757;BME280;45631;51.962;5.974;2023-10-13T07:04:46;100448.50;;;16.96;100.00
59757;BME280;45631;51.962;5.974;2023-10-13T07:07:14;100444.38;;;17.02;100.00
59757;BME280;45631;51.962;5.974;2023-10-13T07:09:43;100440.75;;;17.03;100.00
59757;BME280;45631;51.962;5.974;2023-10-13T07:12:20;100441.81;;;17.10;100.00
59757;BME280;45631;51.962;5.974;2023-10-13T07:14:53;100434.97;;;17.08;100.00
59757;BME280;45631;51.962;5.974;2023-10-13T07:17:27;100444.63;;;17.09;100.00
59757;BME280;45631;51.962;5.974;2023-10-13T07:20:00;100435.94;;;17.06;100.00
59757;BME280;45631;51.962;5.974;2023-10-13T07:22:41;100434.97;;;17.08;100.00
59757;BME280;45631;51.962;5.974;2023-10-13T07:25:22;100426.19;;;17.07;100.00
59757;BME280;45631;51.962;5.974;2023-10-13T07:27:55;100425.63;;;17.03;100.00
59757;BME280;45631;51.962;5.974;2023-10-13T07:30:27;100428.97;;;17.05;100.00
59757;BME280;45631;51.962;5.974;2023-10-13T07:32:57;100416.91;;;17.11;100.00
59757;BME280;45631;51.962;5.974;2023-10-13T07:35:27;100412.75;;;17.09;100.00
59757;BME280;45631;51.962;5.974;2023-10-13T07:37:58;100408.41;;;17.08;100.00
59757;BME280;45631;51.962;5.974;2023-10-13T07:40:30;100410.91;;;17.09;100.00
59757;BME280;45631;51.962;5.974;2023-10-13T07:43:19;100402.94;;;17.09;100.00
59757;BME280;45631;51.962;5.974;2023-10-13T07:45:49;100397.09;;;17.05;100.00
59757;BME280;45631;51.962;5.974;2023-10-13T07:48:20;100390.63;;;17.08;100.00
59757;BME280;45631;51.962;5.974;2023-10-13T07:50:59;100380.69;;;17.10;100.00
59757;BME280;45631;51.962;5.974;2023-10-13T07:53:30;100379.84;;;17.10;100.00
59757;BME280;45631;51.962;5.974;2023-10-13T07:56:02;100378.56;;;17.14;100.00
59757;BME280;45631;51.962;5.974;2023-10-13T07:58:34;100375.91;;;17.14;100.00
59757;BME280;45631;51.962;5.974;2023-10-13T08:01:02;100364.50;;;17.21;100.00
59757;BME280;45631;51.962;5.974;2023-10-13T08:03:44;100353.38;;;17.18;100.00
59757;BME280;45631;51.962;5.974;2023-10-13T08:06:14;100356.38;;;17.23;100.00
59757;BME280;45631;51.962;5.974;2023-10-13T08:08:52;100379.31;;;17.24;100.00
59757;BME280;45631;51.962;5.974;2023-10-13T08:11:35;100363.03;;;17.27;100.00
59757;BME280;45631;51.962;5.974;2023-10-13T08:14:06;100349.47;;;17.30;100.00
59757;BME280;45631;51.962;5.974;2023-10-13T08:17:04;100341.50;;;17.30;100.00
59757;BME280;45631;51.962;5.974;2023-10-13T08:19:35;100354.91;;;17.29;100.00
59757;BME280;45631;51.962;5.974;2023-10-13T08:22:13;100355.13;;;17.35;100.00
59757;BME280;45631;51.962;5.974;2023-10-13T08:25:03;100360.31;;;17.37;100.00
59757;BME280;45631;51.962;5.974;2023-10-13T08:27:47;100362.50;;;17.42;100.00
59757;BME280;45631;51.962;5.974;2023-10-13T08:30:53;100346.06;;;17.46;100.00
59757;BME280;45631;51.962;5.974;2023-10-13T08:33:22;100349.25;;;17.50;100.00
59757;BME280;45631;51.962;5.974;2023-10-13T08:35:54;100341.84;;;17.62;100.00
59757;BME280;45631;51.962;5.974;2023-10-13T08:38:32;100342.34;;;17.65;100.00
59757;BME280;45631;51.962;5.974;2023-10-13T08:41:18;100341.19;;;17.68;100.00
59757;BME280;45631;51.962;5.974;2023-10-13T08:44:01;100349.38;;;17.74;100.00
59757;BME280;45631;51.962;5.974;2023-10-13T08:46:33;100350.41;;;17.82;100.00
59757;BME280;45631;51.962;5.974;2023-10-13T08:49:15;100349.44;;;17.91;100.00
59757;BME280;45631;51.962;5.974;2023-10-13T08:51:45;100353.03;;;18.00;100.00
59757;BME280;45631;51.962;5.974;2023-10-13T08:54:17;100334.25;;;18.01;100.00
59757;BME280;45631;51.962;5.974;2023-10-13T08:57:01;100339.75;;;18.08;100.00
59757;BME280;45631;51.962;5.974;2023-10-13T09:00:00;100325.94;;;18.13;100.00
59757;BME280;45631;51.962;5.974;2023-10-13T09:02:46;100312.84;;;18.19;100.00
59757;BME280;45631;51.962;5.974;2023-10-13T09:05:44;100298.72;;;18.19;100.00
59757;BME280;45631;51.962;5.974;2023-10-13T09:08:28;100307.38;;;18.29;100.00
59757;BME280;45631;51.962;5.974;2023-10-13T09:11:03;100299.03;;;18.32;100.00
59757;BME280;45631;51.962;5.974;2023-10-13T09:13:39;100295.91;;;18.37;100.00
59757;BME280;45631;51.962;5.974;2023-10-13T09:16:13;100303.38;;;18.41;100.00
59757;BME280;45631;51.962;5.974;2023-10-13T09:18:51;100314.72;;;18.44;100.00
59757;BME280;45631;51.962;5.974;2023-10-13T09:21:19;100317.38;;;18.52;100.00
59757;BME280;45631;51.962;5.974;2023-10-13T09:24:14;100309.88;;;18.64;100.00
59757;BME280;45631;51.962;5.974;2023-10-13T09:26:50;100299.91;;;18.66;100.00
59757;BME280;45631;51.962;5.974;2023-10-13T09:29:24;100297.09;;;18.67;100.00
59757;BME280;45631;51.962;5.974;2023-10-13T09:32:00;100300.75;;;18.66;100.00
59757;BME280;45631;51.962;5.974;2023-10-13T09:34:31;100291.41;;;18.70;100.00
59757;BME280;45631;51.962;5.974;2023-10-13T09:37:02;100275.78;;;18.67;100.00
59757;BME280;45631;51.962;5.974;2023-10-13T09:39:32;100280.94;;;18.69;100.00
59757;BME280;45631;51.962;5.974;2023-10-13T09:42:12;100272.47;;;18.65;100.00
59757;BME280;45631;51.962;5.974;2023-10-13T09:44:45;100272.94;;;18.69;100.00
59757;BME280;45631;51.962;5.974;2023-10-13T09:47:21;100279.13;;;18.69;100.00
59757;BME280;45631;51.962;5.974;2023-10-13T09:50:00;100282.78;;;18.68;100.00
59757;BME280;45631;51.962;5.974;2023-10-13T09:52:33;100269.97;;;18.72;100.00
59757;BME280;45631;51.962;5.974;2023-10-13T09:55:19;100269.13;;;18.80;100.00
59757;BME280;45631;51.962;5.974;2023-10-13T09:57:54;100268.94;;;18.81;100.00
59757;BME280;45631;51.962;5.974;2023-10-13T10:00:29;100270.09;;;18.87;100.00
59757;BME280;45631;51.962;5.974;2023-10-13T10:03:14;100275.44;;;18.87;100.00
59757;BME280;45631;51.962;5.974;2023-10-13T10:06:02;100284.81;;;18.91;100.00
59757;BME280;45631;51.962;5.974;2023-10-13T10:08:43;100272.13;;;18.93;100.00
59757;BME280;45631;51.962;5.974;2023-10-13T10:11:30;100272.81;;;18.95;100.00
59757;BME280;45631;51.962;5.974;2023-10-13T10:14:10;100255.31;;;19.01;100.00
59757;BME280;45631;51.962;5.974;2023-10-13T10:16:53;100256.63;;;19.13;100.00
59757;BME280;45631;51.962;5.974;2023-10-13T10:19:30;100262.78;;;19.14;100.00
59757;BME280;45631;51.962;5.974;2023-10-13T10:22:05;100258.75;;;19.18;100.00
59757;BME280;45631;51.962;5.974;2023-10-13T10:24:43;100257.41;;;19.22;100.00
59757;BME280;45631;51.962;5.974;2023-10-13T10:27:23;100253.41;;;19.26;100.00
59757;BME280;45631;51.962;5.974;2023-10-13T10:29:55;100251.41;;;19.28;100.00
59757;BME280;45631;51.962;5.974;2023-10-13T10:32:32;100237.56;;;19.33;100.00
59757;BME280;45631;51.962;5.974;2023-10-13T10:35:03;100245.06;;;19.37;100.00
59757;BME280;45631;51.962;5.974;2023-10-13T10:37:44;100247.06;;;19.35;100.00
59757;BME280;45631;51.962;5.974;2023-10-13T10:40:17;100238.88;;;19.37;100.00
59757;BME280;45631;51.962;5.974;2023-10-13T10:43:01;100242.72;;;19.34;100.00
59757;BME280;45631;51.962;5.974;2023-10-13T10:45:55;100241.41;;;19.30;100.00
59757;BME280;45631;51.962;5.974;2023-10-13T10:48:26;100226.22;;;19.39;100.00
59757;BME280;45631;51.962;5.974;2023-10-13T10:51:01;100223.84;;;19.44;100.00
59757;BME280;45631;51.962;5.974;2023-10-13T10:53:42;100210.69;;;19.42;100.00
59757;BME280;45631;51.962;5.974;2023-10-13T10:56:14;100208.69;;;19.45;100.00
59757;BME280;45631;51.962;5.974;2023-10-13T10:58:54;100203.19;;;19.46;100.00
59757;BME280;45631;51.962;5.974;2023-10-13T11:01:28;100200.34;;;19.48;100.00
59757;BME280;45631;51.962;5.974;2023-10-13T11:04:06;100203.34;;;19.53;100.00
59757;BME280;45631;51.962;5.974;2023-10-13T11:06:47;100195.28;;;19.61;100.00
59757;BME280;45631;51.962;5.974;2023-10-13T11:09:24;100201.25;;;19.63;100.00
59757;BME280;45631;51.962;5.974;2023-10-13T11:12:09;100209.72;;;19.75;100.00
59757;BME280;45631;51.962;5.974;2023-10-13T11:14:43;100195.19;;;19.86;100.00
59757;BME280;45631;51.962;5.974;2023-10-13T11:17:19;100176.81;;;19.91;100.00
59757;BME280;45631;51.962;5.974;2023-10-13T11:19:52;100198.59;;;19.95;100.00
59757;BME280;45631;51.962;5.974;2023-10-13T11:22:22;100189.97;;;19.92;100.00
59757;BME280;45631;51.962;5.974;2023-10-13T11:25:10;100177.94;;;19.97;100.00
59757;BME280;45631;51.962;5.974;2023-10-13T11:27:39;100180.22;;;20.00;100.00
59757;BME280;45631;51.962;5.974;2023-10-13T11:30:24;100177.81;;;19.90;100.00
59757;BME280;45631;51.962;5.974;2023-10-13T11:32:57;100174.78;;;19.93;100.00
59757;BME280;45631;51.962;5.974;2023-10-13T11:35:26;100161.09;;;19.96;100.00
59757;BME280;45631;51.962;5.974;2023-10-13T11:38:15;100168.50;;;20.09;100.00
59757;BME280;45631;51.962;5.974;2023-10-13T11:40:57;100172.22;;;20.23;100.00
59757;BME280;45631;51.962;5.974;2023-10-13T11:43:43;100141.56;;;20.19;100.00
59757;BME280;45631;51.962;5.974;2023-10-13T11:46:28;100146.72;;;20.20;100.00
59757;BME280;45631;51.962;5.974;2023-10-13T11:49:14;100142.41;;;20.19;100.00
59757;BME280;45631;51.962;5.974;2023-10-13T11:51:46;100132.28;;;20.30;100.00
59757;BME280;45631;51.962;5.974;2023-10-13T11:54:19;100128.25;;;20.34;100.00
59757;BME280;45631;51.962;5.974;2023-10-13T11:56:51;100124.94;;;20.32;100.00
59757;BME280;45631;51.962;5.974;2023-10-13T11:59:18;100112.03;;;20.35;100.00
59757;BME280;45631;51.962;5.974;2023-10-13T12:01:51;100121.72;;;20.36;100.00
59757;BME280;45631;51.962;5.974;2023-10-13T12:04:38;100102.56;;;20.48;100.00
59757;BME280;45631;51.962;5.974;2023-10-13T12:07:18;100113.44;;;20.46;100.00
59757;BME280;45631;51.962;5.974;2023-10-13T12:09:50;100099.06;;;20.47;100.00
59757;BME280;45631;51.962;5.974;2023-10-13T12:12:34;100115.50;;;20.59;100.00
59757;BME280;45631;51.962;5.974;2023-10-13T12:15:09;100121.75;;;20.66;100.00
59757;BME280;45631;51.962;5.974;2023-10-13T12:17:41;100106.84;;;20.72;100.00
59757;BME280;45631;51.962;5.974;2023-10-13T12:20:12;100092.19;;;20.83;100.00
59757;BME280;45631;51.962;5.974;2023-10-13T12:22:51;100097.34;;;20.84;100.00
59757;BME280;45631;51.962;5.974;2023-10-13T12:25:22;100094.97;;;20.89;100.00
59757;BME280;45631;51.962;5.974;2023-10-13T12:28:12;100105.47;;;20.91;100.00
59757;BME280;45631;51.962;5.974;2023-10-13T12:30:45;100093.97;;;20.90;100.00
59757;BME280;45631;51.962;5.974;2023-10-13T12:33:17;100101.31;;;20.88;100.00
59757;BME280;45631;51.962;5.974;2023-10-13T12:35:58;100115.78;;;20.94;100.00
59757;BME280;45631;51.962;5.974;2023-10-13T12:38:34;100115.03;;;21.00;100.00
59757;BME280;45631;51.962;5.974;2023-10-13T12:41:18;100109.69;;;21.00;100.00
59757;BME280;45631;51.962;5.974;2023-10-13T12:44:06;100098.44;;;21.05;100.00
59757;BME280;45631;51.962;5.974;2023-10-13T12:46:52;100104.25;;;21.08;100.00
59757;BME280;45631;51.962;5.974;2023-10-13T12:49:38;100101.66;;;21.15;100.00
59757;BME280;45631;51.962;5.974;2023-10-13T12:52:16;100093.19;;;21.11;100.00
59757;BME280;45631;51.962;5.974;2023-10-13T12:54:46;100096.50;;;21.14;100.00
59757;BME280;45631;51.962;5.974;2023-10-13T12:57:26;100092.91;;;21.06;100.00
59757;BME280;45631;51.962;5.974;2023-10-13T12:59:56;100092.09;;;21.06;100.00
59757;BME280;45631;51.962;5.974;2023-10-13T13:02:25;100095.84;;;21.11;100.00
59757;BME280;45631;51.962;5.974;2023-10-13T13:04:55;100095.03;;;21.11;100.00
59757;BME280;45631;51.962;5.974;2023-10-13T13:07:33;100096.88;;;21.10;100.00
59757;BME280;45631;51.962;5.974;2023-10-13T13:10:10;100089.31;;;21.14;100.00
59757;BME280;45631;51.962;5.974;2023-10-13T13:12:40;100088.28;;;21.15;100.00
59757;BME280;45631;51.962;5.974;2023-10-13T13:15:10;100089.09;;;21.16;100.00
59757;BME280;45631;51.962;5.974;2023-10-13T13:17:39;100090.78;;;21.17;100.00
59757;BME280;45631;51.962;5.974;2023-10-13T13:20:09;100084.03;;;21.21;100.00
59757;BME280;45631;51.962;5.974;2023-10-13T13:22:53;100087.91;;;21.18;100.00
59757;BME280;45631;51.962;5.974;2023-10-13T13:25:22;100095.94;;;21.18;100.00
59757;BME280;45631;51.962;5.974;2023-10-13T13:27:57;100096.13;;;21.17;100.00
59757;BME280;45631;51.962;5.974;2023-10-13T13:30:33;100089.97;;;21.16;100.00